• Join FlightAware (Why Join?)
  • Login
  • US Flag 
02:32AM EDT


 

Airport Tracker/Info


-or-


 

Live Flight TrackerFlight Track Log ✈ FIN666 ✈ 31-Oct-2013 ✈ EKCH / CPH - EFHK / HEL

Flight Track Log - Related Links

Times and Time Zones

All times are in EDT time to prevent confusion due to time zone crossing. See the FIN666 flight status page for this flight to view local times or setup timezone preferences in your user account.

Time Position Orientation Groundspeed Altitude Reporting Facility
EDT Latitude Longitude Course Direction KTS MPH feet Rate Location/Type
08:14AM 55.8520 13.1400 49° Northeast  Level Estimated
08:15AM 55.9296 13.3027 50° Northeast  Level Estimated
08:16AM 56.0070 13.4660 50° Northeast  Level Estimated
08:17AM 56.0866 13.6350 50° Northeast  Level Estimated
08:18AM 56.1659 13.8047 50° Northeast  Level Estimated
08:19AM 56.2450 13.9751 50° Northeast  Level Estimated
08:20AM 56.3239 14.1462 50° Northeast  Level Estimated
08:21AM 56.4025 14.3180 50° Northeast  Level Estimated
08:22AM 56.4809 14.4906 51° Northeast  Level Estimated
08:23AM 56.5590 14.6638 51° Northeast  Level Estimated
08:24AM 56.6369 14.8378 51° Northeast  Level Estimated
08:25AM 56.7146 15.0125 51° Northeast  Level Estimated
08:26AM 56.7920 15.1878 51° Northeast  Level Estimated
08:27AM 56.8691 15.3640 51° Northeast  Level Estimated
08:28AM 56.9460 15.5408 51° Northeast  Level Estimated
08:29AM 57.0227 15.7184 52° Northeast  Level Estimated
08:30AM 57.0991 15.8967 52° Northeast  Level Estimated
08:31AM 57.1753 16.0758 52° Northeast  Level Estimated
08:32AM 57.2512 16.2556 52° Northeast  Level Estimated
08:33AM 57.3268 16.4361 52° Northeast  Level Estimated
08:34AM 57.4022 16.6173 52° Northeast  Level Estimated
08:35AM 57.4773 16.7994 52° Northeast  Level Estimated
08:36AM 57.5522 16.9821 53° Northeast  Level Estimated
08:37AM 57.6268 17.1657 53° Northeast  Level Estimated
08:38AM 57.7011 17.3499 53° Northeast  Level Estimated
08:39AM 57.7751 17.5350 53° Northeast  Level Estimated
08:40AM 57.8489 17.7208 53° Northeast  Level Estimated
08:41AM 57.9224 17.9073 53° Northeast  Level Estimated
08:42AM 57.9957 18.0946 54° Northeast  Level Estimated
08:43AM 58.0686 18.2827 54° Northeast  Level Estimated
08:44AM 58.1413 18.4715 54° Northeast  Level Estimated
08:45AM 58.2137 18.6612 54° Northeast  Level Estimated
08:46AM 58.2858 18.8515 54° Northeast  Level Estimated
08:47AM 58.3577 19.0427 54° Northeast  Level Estimated
08:48AM 58.4292 19.2347 54° Northeast  Level Estimated
08:49AM 58.5005 19.4274 55° Northeast  Level Estimated
08:50AM 58.5715 19.6209 55° Northeast  Level Estimated
08:51AM 58.6421 19.8152 55° Northeast  Level Estimated
08:52AM 58.7125 20.0103 55° Northeast  Level Estimated
08:53AM 58.7826 20.2061 55° Northeast  Level Estimated
08:54AM 58.8524 20.4028 55° Northeast  Level Estimated
08:55AM 58.9219 20.6002 56° Northeast  Level Estimated
08:56AM 58.9911 20.7985 56° Northeast  Level Estimated
08:57AM 59.0600 20.9975 56° Northeast  Level Estimated
08:58AM 59.1296 21.2005 56° Northeast  Level Estimated
08:59AM 59.1990 21.4043 56° Northeast  Level Estimated
09:00AM 59.2680 21.6089 57° Northeast  Level Estimated
09:01AM 59.3367 21.8144 57° Northeast  Level Estimated
09:02AM 59.4050 22.0206 57° Northeast  Level Estimated
09:03AM 59.4731 22.2277 57° Northeast  Level Estimated
09:04AM 59.5408 22.4357 57° Northeast  Level Estimated
09:05AM 59.6082 22.6445 57° Northeast  Level Estimated
09:06AM 59.6752 22.8541 58° Northeast  Level Estimated
09:07AM 59.7419 23.0645 58° Northeast  Level Estimated
09:08AM 59.8083 23.2758 58° Northeast  Level Estimated
09:09AM 59.8743 23.4879 58° Northeast  Level Estimated
09:10AM 59.9400 23.7009 58° Northeast  Level Estimated
09:11AM 60.0054 23.9147 58° Northeast  Level Estimated
09:12AM 60.0704 24.1294 59° Northeast  Level Estimated
09:13AM 60.1350 24.3449 59° Northeast  Level Estimated
09:14AM 60.1993 24.5613 59° Northeast  Level Estimated
09:15AM 60.2633 24.7785 59° Northeast  Level Estimated
09:16AM 60.3172 24.9633 59° Northeast  Level Estimated
09:17AM 60.3172 24.9633 37° Northeast  Level Estimated
09:18AM 60.3172 24.9633 37° Northeast  Level Estimated
09:19AM 60.3172 24.9633 37° Northeast  Level Estimated
09:20AM 60.3172 24.9633 37° Northeast  Level Estimated
09:21AM 60.3172 24.9633 37° Northeast  Level Estimated
09:22AM 60.3172 24.9633 37° Northeast  Level Estimated
09:23AM 60.3172 24.9633 37° Northeast  Level Estimated
09:24AM 60.3172 24.9633 37° Northeast  Level Estimated
09:25AM 60.3172 24.9633 37° Northeast  Level Estimated
09:26AM 60.3172 24.9633 37° Northeast  Level Estimated
09:27AM 60.3172 24.9633 37° Northeast  Level Estimated